createdAt,value
2022-07-25T00:00:13.201Z,40.21
2022-07-25T00:02:41.668Z,40.47
2022-07-25T00:05:09.884Z,40.43
2022-07-25T00:07:39.028Z,40.43
2022-07-25T00:10:08.381Z,40.13
2022-07-25T00:12:36.648Z,40.14
2022-07-25T00:15:05.916Z,40.43
2022-07-25T00:17:33.961Z,40.69
2022-07-25T00:20:03.840Z,40.73
2022-07-25T00:22:31.729Z,40.45
2022-07-25T00:24:59.890Z,40.53
2022-07-25T00:27:28.152Z,40.65
2022-07-25T00:29:56.273Z,40.59
2022-07-25T00:32:24.403Z,40.07
2022-07-25T00:34:52.732Z,40.53
2022-07-25T00:37:20.801Z,40.49
2022-07-25T00:39:49.066Z,40.53
2022-07-25T00:42:17.433Z,40.94
2022-07-25T00:44:45.716Z,40.39
2022-07-25T00:47:14.061Z,40.88
2022-07-25T00:49:42.188Z,41.85
2022-07-25T00:52:10.689Z,41.58
2022-07-25T00:54:39.220Z,41.45
2022-07-25T00:57:07.002Z,41.76
2022-07-25T00:59:35.454Z,42.72
2022-07-25T01:02:04.082Z,42.02
2022-07-25T01:04:32.654Z,41.74
2022-07-25T01:07:01.173Z,42.40
2022-07-25T01:09:29.769Z,43.39
2022-07-25T01:11:58.293Z,43.75
2022-07-25T01:14:26.616Z,43.94
2022-07-25T01:16:54.393Z,43.75
2022-07-25T01:19:22.386Z,43.07
2022-07-25T01:21:50.317Z,42.94
2022-07-25T01:24:18.631Z,42.63
2022-07-25T01:26:46.623Z,42.76
2022-07-25T01:29:14.844Z,42.88
2022-07-25T01:31:42.989Z,43.22
2022-07-25T01:34:11.678Z,43.46
2022-07-25T01:36:39.763Z,43.87
2022-07-25T01:39:07.541Z,43.92
2022-07-25T01:41:36.227Z,44.21
2022-07-25T01:44:04.928Z,44.36
2022-07-25T01:46:33.061Z,44.98
2022-07-25T01:49:01.067Z,45.32
2022-07-25T01:51:29.032Z,45.75
2022-07-25T01:53:56.972Z,46.48
2022-07-25T01:56:25.772Z,46.43
2022-07-25T01:58:53.549Z,46.25
2022-07-25T02:01:22.291Z,46.08
2022-07-25T02:03:50.953Z,46.36
2022-07-25T02:06:19.372Z,46.97
2022-07-25T02:08:47.804Z,46.67
2022-07-25T02:11:15.986Z,46.00
2022-07-25T02:13:44.740Z,45.99
2022-07-25T02:16:12.675Z,46.35
2022-07-25T02:18:41.368Z,46.12
2022-07-25T02:21:14.053Z,46.44
2022-07-25T02:23:44.034Z,45.86
2022-07-25T02:26:12.626Z,46.40
2022-07-25T02:28:41.712Z,46.97
2022-07-25T02:31:09.832Z,47.39
2022-07-25T02:33:38.110Z,47.81
2022-07-25T02:36:06.214Z,48.12
2022-07-25T02:38:34.631Z,48.40
2022-07-25T02:41:03.144Z,48.31
2022-07-25T02:43:31.208Z,48.49
2022-07-25T02:45:59.622Z,48.22
2022-07-25T02:48:27.498Z,47.44
2022-07-25T02:50:55.756Z,47.39
2022-07-25T02:53:40.298Z,47.91
2022-07-25T02:56:11.706Z,47.14
2022-07-25T02:58:42.146Z,46.53
2022-07-25T03:01:10.832Z,46.79
2022-07-25T03:03:39.363Z,47.48
2022-07-25T03:06:08.126Z,47.24
2022-07-25T03:08:36.235Z,47.43
2022-07-25T03:11:04.134Z,47.82
2022-07-25T03:13:33.410Z,47.64
2022-07-25T03:16:01.739Z,48.11
2022-07-25T03:18:29.590Z,47.84
2022-07-25T03:20:57.636Z,48.11
2022-07-25T03:23:27.379Z,47.97
2022-07-25T03:25:56.629Z,49.08
2022-07-25T03:28:24.958Z,50.18
2022-07-25T03:30:53.996Z,51.54
2022-07-25T03:33:22.053Z,52.70
2022-07-25T03:35:50.699Z,53.90
2022-07-25T03:38:18.801Z,54.57
2022-07-25T03:40:46.506Z,54.94
2022-07-25T03:43:15.177Z,54.72
2022-07-25T03:45:43.134Z,55.82
2022-07-25T03:48:12.331Z,56.48
2022-07-25T03:50:40.180Z,55.35
2022-07-25T03:53:07.875Z,55.72
2022-07-25T03:55:39.944Z,54.62
2022-07-25T03:58:07.903Z,54.96
2022-07-25T04:00:35.581Z,54.52
2022-07-25T04:03:04.399Z,52.75
2022-07-25T04:05:32.186Z,51.67
2022-07-25T04:08:00.484Z,51.59
2022-07-25T04:10:28.156Z,50.99
2022-07-25T04:12:55.829Z,51.06
2022-07-25T04:15:23.940Z,51.20
2022-07-25T04:17:51.720Z,50.54
2022-07-25T04:20:19.864Z,50.43
2022-07-25T04:22:47.730Z,50.19
2022-07-25T04:25:15.595Z,50.34
2022-07-25T04:27:44.591Z,49.33
2022-07-25T04:30:12.722Z,49.05
2022-07-25T04:32:51.924Z,48.10
2022-07-25T04:35:20.133Z,47.73
2022-07-25T04:37:48.480Z,48.42
2022-07-25T04:40:16.744Z,47.72
2022-07-25T04:42:44.928Z,48.18
2022-07-25T04:45:14.099Z,48.35
2022-07-25T04:47:46.152Z,48.75
2022-07-25T04:50:14.462Z,48.96
2022-07-25T04:52:43.243Z,48.80
2022-07-25T04:55:11.051Z,48.71
2022-07-25T04:57:39.266Z,47.38
2022-07-25T05:00:09.195Z,46.44
2022-07-25T05:02:37.714Z,46.55
2022-07-25T05:05:06.468Z,46.72
2022-07-25T05:07:35.283Z,46.15
2022-07-25T05:10:05.201Z,45.22
2022-07-25T05:12:33.644Z,45.66
2022-07-25T05:15:02.648Z,45.12
2022-07-25T05:17:30.879Z,45.29
2022-07-25T05:19:59.289Z,45.21
2022-07-25T05:22:28.542Z,44.36
2022-07-25T05:24:56.981Z,43.63
2022-07-25T05:27:24.958Z,43.62
2022-07-25T05:29:52.743Z,42.73
2022-07-25T05:32:20.522Z,41.66
2022-07-25T05:34:49.502Z,41.33
2022-07-25T05:37:17.270Z,41.61
2022-07-25T05:39:45.550Z,41.96
2022-07-25T05:42:13.733Z,41.26
2022-07-25T05:44:41.917Z,40.39
2022-07-25T05:47:13.333Z,41.39
2022-07-25T05:49:41.672Z,40.43
2022-07-25T05:52:12.946Z,40.40
2022-07-25T05:54:41.624Z,40.26
2022-07-25T05:57:09.923Z,39.76
2022-07-25T05:59:37.796Z,39.37
2022-07-25T06:02:05.688Z,39.17
2022-07-25T06:04:33.727Z,39.19
2022-07-25T06:07:01.585Z,38.66
2022-07-25T06:09:31.975Z,38.35
2022-07-25T06:12:01.159Z,38.59
2022-07-25T06:14:29.951Z,38.54
2022-07-25T06:16:58.400Z,38.30
2022-07-25T06:19:26.149Z,38.41
2022-07-25T06:21:53.829Z,37.89
2022-07-25T06:24:22.119Z,37.83
2022-07-25T06:26:50.390Z,37.59
2022-07-25T06:29:18.176Z,37.37
2022-07-25T06:31:47.417Z,38.22
2022-07-25T06:34:15.789Z,37.60
2022-07-25T06:36:43.657Z,37.88
2022-07-25T06:39:11.970Z,37.36
2022-07-25T06:41:40.147Z,38.02
2022-07-25T06:44:08.774Z,38.74
2022-07-25T06:46:37.384Z,38.38
2022-07-25T06:49:05.216Z,39.06
2022-07-25T06:51:33.136Z,39.15
2022-07-25T06:54:01.408Z,38.98
2022-07-25T06:56:31.558Z,38.88
2022-07-25T06:59:00.665Z,39.80
2022-07-25T07:01:29.440Z,39.70
2022-07-25T07:03:57.747Z,39.94
2022-07-25T07:06:25.753Z,39.69
2022-07-25T07:08:53.738Z,39.55
2022-07-25T07:11:21.487Z,39.59
2022-07-25T07:13:49.309Z,40.05
2022-07-25T07:16:17.108Z,39.42
2022-07-25T07:18:49.088Z,39.45
2022-07-25T07:21:20.981Z,39.71
2022-07-25T07:23:53.425Z,39.80
2022-07-25T07:26:22.661Z,39.96
2022-07-25T07:28:54.471Z,39.56
2022-07-25T07:31:22.479Z,39.86
2022-07-25T07:33:51.426Z,39.82
2022-07-25T07:36:19.175Z,39.97
2022-07-25T07:38:48.346Z,38.82
2022-07-25T07:41:16.313Z,38.49
2022-07-25T07:43:44.563Z,37.77
2022-07-25T07:46:13.267Z,38.87
2022-07-25T07:48:41.189Z,38.54
2022-07-25T07:51:09.455Z,39.22
2022-07-25T07:53:55.947Z,37.77
2022-07-25T07:56:23.786Z,37.75
2022-07-25T07:58:52.045Z,38.04
2022-07-25T08:01:20.569Z,38.10
2022-07-25T08:03:48.809Z,38.23
2022-07-25T08:06:17.390Z,37.85
2022-07-25T08:08:45.227Z,37.10
2022-07-25T08:11:13.079Z,36.98
2022-07-25T08:13:41.383Z,37.13
2022-07-25T08:16:12.085Z,35.80
2022-07-25T08:18:40.524Z,35.98
2022-07-25T08:21:08.713Z,36.12
2022-07-25T08:23:39.153Z,37.04
2022-07-25T08:26:07.920Z,36.83
2022-07-25T08:28:35.646Z,36.41
2022-07-25T08:31:03.790Z,36.21
2022-07-25T08:33:32.257Z,35.84
2022-07-25T08:36:00.568Z,36.04
2022-07-25T08:38:29.661Z,35.18
2022-07-25T08:40:59.854Z,35.52
2022-07-25T08:43:33.141Z,34.68
2022-07-25T08:46:02.371Z,33.33
2022-07-25T08:48:30.323Z,34.31
2022-07-25T08:50:58.709Z,34.47
2022-07-25T08:53:35.538Z,34.03
2022-07-25T08:56:12.267Z,33.73
2022-07-25T08:58:41.810Z,32.58
2022-07-25T09:01:13.743Z,32.74
2022-07-25T09:03:43.810Z,32.25
2022-07-25T09:06:16.874Z,32.96
2022-07-25T09:08:59.790Z,32.98
2022-07-25T09:11:36.173Z,32.55
2022-07-25T09:14:10.882Z,32.08
2022-07-25T09:16:44.456Z,30.77
2022-07-25T09:19:17.255Z,30.55
2022-07-25T09:21:46.021Z,31.00
2022-07-25T09:24:17.299Z,30.08
2022-07-25T09:26:49.634Z,30.57
2022-07-25T09:29:23.496Z,30.36
2022-07-25T09:31:54.250Z,30.51
2022-07-25T09:34:36.469Z,30.51
2022-07-25T09:37:06.871Z,30.48
2022-07-25T09:39:40.732Z,30.24
2022-07-25T09:42:16.630Z,29.82
2022-07-25T09:44:45.458Z,30.18
2022-07-25T09:47:14.959Z,29.50
2022-07-25T09:49:44.274Z,29.64
2022-07-25T09:52:12.694Z,27.89
2022-07-25T09:54:41.328Z,27.92
2022-07-25T09:57:09.725Z,27.58
2022-07-25T09:59:39.570Z,26.63
2022-07-25T10:02:09.646Z,26.72
2022-07-25T10:04:53.335Z,26.37
2022-07-25T10:07:25.936Z,26.65
2022-07-25T10:09:57.830Z,27.09
2022-07-25T10:12:26.688Z,26.85
2022-07-25T10:15:10.038Z,26.46
2022-07-25T10:17:40.199Z,26.87
2022-07-25T10:20:11.248Z,27.38
2022-07-25T10:22:57.269Z,27.95
2022-07-25T10:25:26.390Z,27.60
2022-07-25T10:28:01.387Z,27.17
2022-07-25T10:30:36.023Z,27.41
2022-07-25T10:33:18.036Z,26.88
2022-07-25T10:35:46.219Z,27.39
2022-07-25T10:38:14.096Z,27.76
2022-07-25T10:40:44.831Z,26.16
2022-07-25T10:43:19.495Z,25.83
2022-07-25T10:45:52.112Z,26.08
2022-07-25T10:48:25.362Z,25.09
2022-07-25T10:51:06.060Z,25.26
2022-07-25T10:53:41.240Z,25.17
2022-07-25T10:56:13.341Z,24.76
2022-07-25T10:58:48.941Z,24.64
2022-07-25T11:01:25.384Z,24.01
2022-07-25T11:03:58.864Z,23.29
2022-07-25T11:06:38.277Z,22.12
2022-07-25T11:09:28.129Z,22.00
2022-07-25T11:11:58.863Z,22.90
2022-07-25T11:14:32.476Z,22.84
2022-07-25T11:17:18.788Z,22.80
2022-07-25T11:20:01.695Z,21.96
2022-07-25T11:22:30.768Z,22.10
2022-07-25T11:24:59.582Z,23.16
2022-07-25T11:27:30.847Z,22.21
2022-07-25T11:30:15.131Z,22.70
2022-07-25T11:32:49.872Z,22.31
2022-07-25T11:35:22.749Z,22.34
2022-07-25T11:37:52.249Z,21.94
2022-07-25T11:40:23.088Z,21.68
2022-07-25T11:42:56.586Z,21.19
2022-07-25T11:45:28.574Z,20.90
2022-07-25T11:48:10.233Z,18.66
2022-07-25T11:50:41.238Z,18.83
2022-07-25T11:53:14.052Z,18.98
2022-07-25T11:55:43.545Z,19.98
2022-07-25T11:58:14.420Z,19.83
2022-07-25T12:00:48.673Z,20.49
2022-07-25T12:03:20.460Z,21.20
2022-07-25T12:05:49.731Z,20.22
2022-07-25T12:08:23.965Z,20.50
2022-07-25T12:10:52.148Z,21.78
2022-07-25T12:13:27.833Z,21.71
2022-07-25T12:16:00.772Z,21.95
2022-07-25T12:18:29.537Z,21.18
2022-07-25T12:20:58.367Z,20.60
2022-07-25T12:23:26.695Z,20.11
2022-07-25T12:25:54.566Z,20.27
2022-07-25T12:28:22.413Z,20.02
2022-07-25T12:30:56.287Z,20.79
2022-07-25T12:33:24.710Z,21.34
2022-07-25T12:35:53.681Z,19.96
2022-07-25T12:38:21.935Z,20.75
2022-07-25T12:40:49.812Z,20.74
2022-07-25T12:43:18.699Z,20.45
2022-07-25T12:45:46.918Z,20.37
2022-07-25T12:48:15.217Z,20.63
2022-07-25T12:50:43.806Z,19.62
2022-07-25T12:53:13.645Z,20.20
2022-07-25T12:55:42.700Z,19.46
2022-07-25T12:58:11.635Z,18.59
2022-07-25T13:00:39.421Z,18.23
2022-07-25T13:03:07.193Z,16.96
2022-07-25T13:05:35.126Z,16.55
2022-07-25T13:08:05.317Z,16.72
2022-07-25T13:10:33.381Z,17.00
2022-07-25T13:13:01.107Z,16.44
2022-07-25T13:15:30.322Z,16.18
2022-07-25T13:17:58.623Z,16.02
2022-07-25T13:20:26.491Z,15.60
2022-07-25T13:22:54.261Z,15.49
2022-07-25T13:25:22.025Z,14.56
2022-07-25T13:27:50.680Z,14.65
2022-07-25T13:30:18.914Z,14.67
2022-07-25T13:32:46.716Z,15.05
2022-07-25T13:35:17.769Z,15.44
2022-07-25T13:37:48.349Z,16.00
2022-07-25T13:40:16.205Z,15.75
2022-07-25T13:42:44.277Z,15.69
2022-07-25T13:45:12.474Z,16.46
2022-07-25T13:47:40.344Z,15.24
2022-07-25T13:50:08.997Z,15.81
2022-07-25T13:52:37.856Z,15.17
2022-07-25T13:55:06.344Z,15.09
2022-07-25T13:57:34.931Z,15.44
2022-07-25T14:00:03.531Z,16.67
2022-07-25T14:02:32.912Z,18.04
2022-07-25T14:05:04.022Z,19.20
2022-07-25T14:07:32.172Z,20.47
2022-07-25T14:09:59.947Z,21.12
2022-07-25T14:12:28.168Z,21.52
2022-07-25T14:14:55.981Z,22.06
2022-07-25T14:17:28.254Z,22.41
2022-07-25T14:19:57.715Z,23.21
2022-07-25T14:22:25.888Z,23.93
2022-07-25T14:24:53.698Z,24.42
2022-07-25T14:27:21.730Z,24.67
2022-07-25T14:29:50.357Z,24.02
2022-07-25T14:32:18.049Z,23.81
2022-07-25T14:34:46.526Z,23.97
2022-07-25T14:37:14.944Z,23.89
2022-07-25T14:39:42.649Z,23.98
2022-07-25T14:42:12.009Z,24.04
2022-07-25T14:44:40.487Z,25.54
2022-07-25T14:47:12.360Z,26.45
2022-07-25T14:49:40.940Z,27.44
2022-07-25T14:52:09.340Z,27.14
2022-07-25T14:54:37.542Z,27.32
2022-07-25T14:57:05.777Z,26.88
2022-07-25T14:59:34.459Z,27.38
2022-07-25T15:02:02.737Z,27.41
2022-07-25T15:04:31.325Z,27.83
2022-07-25T15:06:59.105Z,28.75
2022-07-25T15:09:27.016Z,29.00
2022-07-25T15:11:55.250Z,29.69
2022-07-25T15:14:23.465Z,29.75
2022-07-25T15:16:52.018Z,29.73
2022-07-25T15:19:19.915Z,29.89
2022-07-25T15:21:47.808Z,29.71
2022-07-25T15:24:16.353Z,29.44
2022-07-25T15:26:44.163Z,29.69
2022-07-25T15:29:15.259Z,29.63
2022-07-25T15:31:43.051Z,29.86
2022-07-25T15:34:11.090Z,29.82
2022-07-25T15:36:38.913Z,29.42
2022-07-25T15:39:08.409Z,29.33
2022-07-25T15:41:36.363Z,29.01
2022-07-25T15:44:04.288Z,28.46
2022-07-25T15:46:32.899Z,27.63
2022-07-25T15:49:00.848Z,24.13
2022-07-25T15:51:29.290Z,21.09
2022-07-25T15:53:57.123Z,21.02
2022-07-25T15:56:25.691Z,20.18
2022-07-25T15:58:54.391Z,19.89
2022-07-25T16:01:22.182Z,19.52
2022-07-25T16:03:50.127Z,19.39
2022-07-25T16:06:20.800Z,19.28
2022-07-25T16:08:49.067Z,19.56
2022-07-25T16:11:24.745Z,20.16
2022-07-25T16:13:53.816Z,19.85
2022-07-25T16:16:22.212Z,19.22
2022-07-25T16:18:50.205Z,18.50
2022-07-25T16:21:18.700Z,18.48
2022-07-25T16:23:46.603Z,19.10
2022-07-25T16:26:14.855Z,18.91
2022-07-25T16:28:43.538Z,19.64
2022-07-25T16:31:11.266Z,18.78
2022-07-25T16:33:39.584Z,18.84
2022-07-25T16:36:08.361Z,19.28
2022-07-25T16:38:36.107Z,19.51
2022-07-25T16:41:04.371Z,18.77
2022-07-25T16:43:32.335Z,18.75
2022-07-25T16:46:02.293Z,19.54
2022-07-25T16:48:31.472Z,19.12
2022-07-25T16:50:59.769Z,20.86
2022-07-25T16:53:27.734Z,20.37
2022-07-25T16:55:55.586Z,20.53
2022-07-25T16:58:23.997Z,20.47
2022-07-25T17:00:52.146Z,20.27
2022-07-25T17:03:20.516Z,20.15
2022-07-25T17:05:51.776Z,20.43
2022-07-25T17:08:20.227Z,21.29
2022-07-25T17:10:48.511Z,21.20
2022-07-25T17:13:16.920Z,21.10
2022-07-25T17:15:45.564Z,21.30
2022-07-25T17:18:14.273Z,21.58
2022-07-25T17:20:43.930Z,22.21
2022-07-25T17:23:12.017Z,23.21
2022-07-25T17:25:41.501Z,23.77
2022-07-25T17:28:09.899Z,25.01
2022-07-25T17:30:38.570Z,26.66
2022-07-25T17:33:06.383Z,27.12
2022-07-25T17:35:34.675Z,27.96
2022-07-25T17:38:02.909Z,28.22
2022-07-25T17:40:30.780Z,28.39
2022-07-25T17:42:59.636Z,28.69
2022-07-25T17:45:27.548Z,28.68
2022-07-25T17:47:55.643Z,29.12
2022-07-25T17:50:29.243Z,29.13
2022-07-25T17:52:59.752Z,29.31
2022-07-25T17:55:29.069Z,29.31
2022-07-25T17:57:59.614Z,29.58
2022-07-25T18:00:27.539Z,29.91
2022-07-25T18:02:55.948Z,30.44
2022-07-25T18:05:23.934Z,30.46
2022-07-25T18:07:53.722Z,31.00
2022-07-25T18:10:22.465Z,31.27
2022-07-25T18:12:51.205Z,30.88
2022-07-25T18:15:18.902Z,31.19
2022-07-25T18:17:48.662Z,30.99
2022-07-25T18:20:16.970Z,31.74
2022-07-25T18:22:45.425Z,31.49
2022-07-25T18:25:14.369Z,32.03
2022-07-25T18:27:46.912Z,32.14
2022-07-25T18:30:16.916Z,31.98
2022-07-25T18:32:45.757Z,32.56
2022-07-25T18:35:14.278Z,32.66
2022-07-25T18:37:42.819Z,32.64
2022-07-25T18:40:11.947Z,33.07
2022-07-25T18:42:41.048Z,33.18
2022-07-25T18:45:09.741Z,33.58
2022-07-25T18:47:37.717Z,33.64
2022-07-25T18:50:06.559Z,34.43
2022-07-25T18:52:37.641Z,34.84
2022-07-25T18:55:08.897Z,34.63
2022-07-25T18:57:37.148Z,34.79
2022-07-25T19:00:07.469Z,34.88
2022-07-25T19:02:35.927Z,34.59
2022-07-25T19:05:04.511Z,34.85
2022-07-25T19:07:33.612Z,34.64
2022-07-25T19:10:02.727Z,34.62
2022-07-25T19:12:30.968Z,34.96
2022-07-25T19:14:58.793Z,35.22
2022-07-25T19:17:26.846Z,35.37
2022-07-25T19:19:54.918Z,35.04
2022-07-25T19:22:22.793Z,35.47
2022-07-25T19:24:51.542Z,35.30
2022-07-25T19:27:20.045Z,35.38
2022-07-25T19:29:47.971Z,35.31
2022-07-25T19:32:16.087Z,35.52
2022-07-25T19:34:46.305Z,35.56
2022-07-25T19:37:14.056Z,35.91
2022-07-25T19:39:42.464Z,35.92
2022-07-25T19:42:12.391Z,35.76
2022-07-25T19:44:40.373Z,36.17
2022-07-25T19:47:11.668Z,36.21
2022-07-25T19:49:40.980Z,36.13
2022-07-25T19:52:10.687Z,35.83
2022-07-25T19:54:39.031Z,36.29
2022-07-25T19:57:07.656Z,36.04
2022-07-25T19:59:35.924Z,36.18
2022-07-25T20:02:04.642Z,36.10
2022-07-25T20:04:33.025Z,35.87
2022-07-25T20:07:02.423Z,36.10
2022-07-25T20:09:30.468Z,36.11
2022-07-25T20:11:59.815Z,36.21
2022-07-25T20:14:27.575Z,36.38
2022-07-25T20:16:56.026Z,36.25
2022-07-25T20:19:24.172Z,36.30
2022-07-25T20:21:52.248Z,36.37
2022-07-25T20:24:21.738Z,37.11
2022-07-25T20:26:49.883Z,37.00
2022-07-25T20:29:18.688Z,37.20
2022-07-25T20:31:47.115Z,37.56
2022-07-25T20:34:16.098Z,37.55
2022-07-25T20:36:47.098Z,37.18
2022-07-25T20:39:15.012Z,36.90
2022-07-25T20:41:42.967Z,36.68
2022-07-25T20:44:12.809Z,37.27
2022-07-25T20:46:40.886Z,37.29
2022-07-25T20:49:09.659Z,37.50
2022-07-25T20:51:42.248Z,37.42
2022-07-25T20:54:10.103Z,37.55
2022-07-25T20:56:37.939Z,37.80
2022-07-25T20:59:06.130Z,37.35
2022-07-25T21:01:35.148Z,37.78
2022-07-25T21:04:07.423Z,37.71
2022-07-25T21:06:36.709Z,37.48
2022-07-25T21:09:05.862Z,37.52
2022-07-25T21:11:37.771Z,42.40
2022-07-25T21:14:07.109Z,48.61
2022-07-25T21:16:35.770Z,59.37
2022-07-25T21:19:03.553Z,64.14
2022-07-25T21:21:31.778Z,65.55
2022-07-25T21:23:59.616Z,65.86
2022-07-25T21:26:27.551Z,66.65
2022-07-25T21:28:55.305Z,68.11
2022-07-25T21:31:23.549Z,67.82
2022-07-25T21:33:52.067Z,68.33
2022-07-25T21:36:20.716Z,68.08
2022-07-25T21:38:49.268Z,66.77
2022-07-25T21:41:18.058Z,67.91
2022-07-25T21:43:46.766Z,68.25
2022-07-25T21:46:15.114Z,69.26
2022-07-25T21:49:02.004Z,69.22
2022-07-25T21:51:40.902Z,67.97
2022-07-25T21:54:09.619Z,62.25
2022-07-25T21:56:37.707Z,59.72
2022-07-25T21:59:06.870Z,58.91
2022-07-25T22:01:35.081Z,58.98
2022-07-25T22:04:03.597Z,58.90
2022-07-25T22:06:32.073Z,60.22
2022-07-25T22:08:59.960Z,58.68
2022-07-25T22:11:38.371Z,58.68
2022-07-25T22:14:11.376Z,57.82
2022-07-25T22:16:39.674Z,57.37
2022-07-25T22:19:08.425Z,57.86
2022-07-25T22:21:37.013Z,58.33
2022-07-25T22:24:05.039Z,57.46
2022-07-25T22:26:32.863Z,57.78
2022-07-25T22:29:01.533Z,63.55
2022-07-25T22:31:30.158Z,67.92
2022-07-25T22:33:58.446Z,68.72
2022-07-25T22:36:26.186Z,64.66
2022-07-25T22:38:54.101Z,65.37
2022-07-25T22:41:22.423Z,65.58
2022-07-25T22:43:57.901Z,65.40
2022-07-25T22:46:29.511Z,64.04
2022-07-25T22:48:59.075Z,63.43
2022-07-25T22:51:29.091Z,63.75
2022-07-25T22:53:57.975Z,60.39
2022-07-25T22:56:26.165Z,57.15
2022-07-25T22:58:54.421Z,56.25
2022-07-25T23:01:22.286Z,54.02
2022-07-25T23:03:50.716Z,51.24
2022-07-25T23:06:21.402Z,48.47
2022-07-25T23:08:50.230Z,46.37
2022-07-25T23:11:18.595Z,46.06
2022-07-25T23:13:46.427Z,45.50
2022-07-25T23:16:14.569Z,46.32
2022-07-25T23:18:42.907Z,47.39
2022-07-25T23:21:11.168Z,48.18
2022-07-25T23:23:38.918Z,48.29
2022-07-25T23:26:06.788Z,48.26
2022-07-25T23:28:35.103Z,48.76
2022-07-25T23:31:03.035Z,49.00
2022-07-25T23:33:31.004Z,49.37
2022-07-25T23:35:59.459Z,50.27
2022-07-25T23:38:27.551Z,50.68
2022-07-25T23:40:56.180Z,54.38
2022-07-25T23:43:54.375Z,55.08
2022-07-25T23:46:13.471Z,56.70
2022-07-25T23:48:41.679Z,58.85
2022-07-25T23:51:09.503Z,61.22
2022-07-25T23:53:37.834Z,62.10
2022-07-25T23:56:05.677Z,62.90
2022-07-25T23:58:33.491Z,61.11
